Lone Elm, Missouri
Current Conditions -  °F | °C
As of 4:15 AM on Wednesday 26 Nov 2014 (Local Time) from KVER Reporting Station
Overcast Overcast  
Wind Chill: 26°   Ceiling: 9000
Heat Index: 32°   Visibility: 10mi
Dew Point: 21°   Wind: 7mph
Humidity: 64%   Direction: 120°ESE
Pressure: 30"   Gusts: NA
Location:  38.7427°N, 92.7977°W
Report Text: KVER 261015Z AUTO 12006KT 10SM SCT070 OVC090 00/M06 A3000 RMK AO2 T00001061
Loading
Personal Weather Stations






























Interactive Weather Map New forecast layout! Learn more

10-Day Weather Forecast

Advertisements
Track Severe Weather on mobile